Time;durP1;ratioP1;P1;durP2;ratioP2;P2;SDS_P1;SDS_P2;PMS_P1;PMS_P2;Temp;Humidity;BMP_temperature;BMP_pressure;BME280_temperature;BME280_humidity;BME280_pressure;Samples;Min_cycle;Max_cycle;Signal;HPM_P1;HPM_P2
2023/03/22 00:01:14;;;;;;;48.40;31.83;;;7.90;99.90;;;;;;5083071;28;20234;-64
2023/03/22 00:04:03;;;;;;;45.50;30.13;;;7.80;99.90;;;;;;5080703;28;20223;-65
2023/03/22 00:06:52;;;;;;;47.45;30.90;;;7.80;99.90;;;;;;5082171;28;20215;-65
2023/03/22 00:09:40;;;;;;;49.30;30.50;;;8.00;99.90;;;;;;5102342;27;20244;-64
2023/03/22 00:12:29;;;;;;;46.83;29.85;;;7.90;99.90;;;;;;5084629;28;20231;-63
2023/03/22 00:15:18;;;;;;;45.07;30.47;;;8.00;99.90;;;;;;5082582;28;20238;-64
2023/03/22 00:18:11;;;;;;;50.33;30.57;;;8.00;99.90;;;;;;5083426;28;20226;-64
2023/03/22 00:21:00;;;;;;;43.30;29.67;;;8.00;99.90;;;;;;5085462;28;20226;-67
2023/03/22 00:23:49;;;;;;;47.65;30.23;;;7.70;99.90;;;;;;5085770;28;20228;-66
2023/03/22 00:26:38;;;;;;;49.80;30.58;;;7.60;99.90;;;;;;5083428;28;20725;-66
2023/03/22 00:29:27;;;;;;;48.80;33.43;;;7.80;99.90;;;;;;5081118;28;20238;-66
2023/03/22 00:32:15;;;;;;;51.75;31.65;;;7.70;99.90;;;;;;5075939;28;20242;-64
2023/03/22 00:35:06;;;;;;;48.80;31.33;;;7.80;99.90;;;;;;5081556;28;20223;-63
2023/03/22 00:37:55;;;;;;;44.38;30.55;;;7.80;99.90;;;;;;5081218;28;20222;-65
2023/03/22 00:40:44;;;;;;;46.97;31.27;;;7.70;99.90;;;;;;5079894;28;20227;-65
2023/03/22 00:43:33;;;;;;;48.53;31.58;;;7.70;99.90;;;;;;5082172;28;20800;-65
2023/03/22 00:46:22;;;;;;;47.87;31.83;;;7.70;99.90;;;;;;5078186;28;20222;-64
2023/03/22 00:49:11;;;;;;;44.27;30.00;;;7.70;99.90;;;;;;5076298;28;20231;-65
2023/03/22 00:52:02;;;;;;;43.97;29.87;;;7.60;99.90;;;;;;5089546;28;20219;-65
2023/03/22 00:54:54;;;;;;;49.77;30.87;;;7.40;99.90;;;;;;5083504;28;20261;-65
2023/03/22 00:57:43;;;;;;;48.63;30.97;;;7.40;99.90;;;;;;5078093;28;20216;-65
2023/03/22 01:00:32;;;;;;;51.43;30.83;;;7.50;99.90;;;;;;5081549;28;20738;-64
2023/03/22 01:03:21;;;;;;;46.23;30.60;;;7.60;99.90;;;;;;5076035;28;20709;-65
2023/03/22 01:06:11;;;;;;;52.37;32.00;;;7.60;99.90;;;;;;5075533;28;20310;-65
2023/03/22 01:09:01;;;;;;;46.77;31.63;;;7.50;99.90;;;;;;5076969;28;20219;-66
2023/03/22 01:11:50;;;;;;;46.07;30.63;;;7.30;99.90;;;;;;5078293;28;20234;-65
2023/03/22 01:14:39;;;;;;;43.92;30.90;;;7.30;99.90;;;;;;5088487;27;20226;-65
2023/03/22 01:17:28;;;;;;;47.08;30.48;;;7.40;99.90;;;;;;5074130;28;20235;-64
2023/03/22 01:20:17;;;;;;;49.40;30.93;;;7.40;99.90;;;;;;5090969;28;20698;-65
2023/03/22 01:23:06;;;;;;;50.07;30.77;;;7.40;99.90;;;;;;5079148;28;20242;-65
2023/03/22 01:25:57;;;;;;;47.77;30.80;;;7.20;99.90;;;;;;5089494;28;20220;-64
2023/03/22 01:28:46;;;;;;;49.13;31.70;;;7.10;99.90;;;;;;5082138;28;20231;-65
2023/03/22 01:31:35;;;;;;;50.00;31.90;;;7.20;99.90;;;;;;5092532;28;20987;-64
2023/03/22 01:34:25;;;;;;;49.43;31.63;;;7.20;99.90;;;;;;5080487;28;20253;-63
2023/03/22 01:37:15;;;;;;;48.23;31.27;;;7.20;99.90;;;;;;5079854;28;20323;-66
2023/03/22 01:40:09;;;;;;;50.10;31.80;;;7.30;99.90;;;;;;5091907;28;20219;-65
2023/03/22 01:42:59;;;;;;;50.83;32.97;;;7.20;99.90;;;;;;5077652;28;20231;-63
2023/03/22 01:45:49;;;;;;;51.00;32.80;;;7.20;99.90;;;;;;5078398;28;20223;-64
2023/03/22 01:48:44;;;;;;;47.47;31.83;;;7.30;99.90;;;;;;5079713;28;20222;-65
2023/03/22 01:51:35;;;;;;;49.57;31.77;;;7.20;99.90;;;;;;5075934;28;20276;-65
2023/03/22 01:54:41;;;;;;;47.80;31.33;;;7.10;99.90;;;;;;5087590;28;20749;-65
2023/03/22 01:58:03;;;;;;;48.87;31.57;;;7.30;99.90;;;;;;5068606;28;20224;-66
2023/03/22 02:01:02;;;;;;;53.40;33.77;;;7.20;99.90;;;;;;5074073;28;20233;-64
2023/03/22 02:04:15;;;;;;;48.20;32.03;;;7.00;99.90;;;;;;5075961;28;20227;-65
2023/03/22 02:07:09;;;;;;;48.10;30.63;;;7.00;99.90;;;;;;5088779;28;20309;-63
2023/03/22 02:09:59;;;;;;;49.17;33.77;;;6.90;99.90;;;;;;5082261;28;20793;-62
2023/03/22 02:13:19;;;;;;;49.50;32.57;;;6.90;99.90;;;;;;5092618;27;20219;-67
2023/03/22 02:16:28;;;;;;;47.33;31.67;;;6.90;99.90;;;;;;5076095;28;20253;-64
2023/03/22 02:20:09;;;;;;;52.17;31.73;;;6.90;99.90;;;;;;5090508;28;20249;-65
2023/03/22 02:23:33;;;;;;;53.20;33.23;;;6.90;99.90;;;;;;5091106;28;20721;-63
2023/03/22 02:27:03;;;;;;;54.03;33.67;;;6.80;99.90;;;;;;5070050;28;20284;-65
2023/03/22 02:30:06;;;;;;;49.20;32.57;;;6.70;99.90;;;;;;5082783;28;20234;-64
2023/03/22 02:33:28;;;;;;;46.57;31.57;;;6.60;99.90;;;;;;5077990;28;20214;-64
2023/03/22 02:36:34;;;;;;;50.73;31.60;;;6.40;99.90;;;;;;5082876;28;20230;-63
2023/03/22 02:39:35;;;;;;;54.17;32.83;;;6.30;99.90;;;;;;5072435;28;20253;-66
2023/03/22 02:42:40;;;;;;;51.93;32.30;;;6.20;99.90;;;;;;5081136;28;20219;-65
2023/03/22 02:45:34;;;;;;;50.73;32.00;;;6.10;99.90;;;;;;5088554;28;20227;-64
2023/03/22 02:48:28;;;;;;;52.63;32.07;;;5.90;99.90;;;;;;5078474;28;20658;-64
2023/03/22 02:51:21;;;;;;;51.27;32.17;;;6.00;99.90;;;;;;5078551;28;20230;-63
2023/03/22 02:54:14;;;;;;;54.33;33.47;;;6.00;99.90;;;;;;5077591;28;20221;-65
2023/03/22 02:57:11;;;;;;;47.90;32.33;;;5.90;99.90;;;;;;5076590;28;20225;-64
2023/03/22 03:00:01;;;;;;;52.13;32.07;;;5.80;99.90;;;;;;5082108;28;20223;-64
2023/03/22 03:02:56;;;;;;;48.90;31.97;;;5.90;99.90;;;;;;5076940;28;20333;-65
2023/03/22 03:05:49;;;;;;;53.83;33.90;;;5.80;99.90;;;;;;5092760;28;20230;-65
2023/03/22 03:08:40;;;;;;;59.00;34.10;;;5.70;99.90;;;;;;5082230;28;20242;-66
2023/03/22 03:11:29;;;;;;;53.33;32.90;;;5.70;99.90;;;;;;5080134;28;20266;-65
2023/03/22 03:14:23;;;;;;;54.03;33.87;;;5.70;99.90;;;;;;5084741;28;20707;-64
2023/03/22 03:17:25;;;;;;;55.93;35.17;;;5.60;99.90;;;;;;5079824;28;20228;-63
2023/03/22 03:20:28;;;;;;;58.00;34.20;;;5.60;99.90;;;;;;5077700;28;20307;-64
2023/03/22 03:23:30;;;;;;;52.53;34.10;;;5.70;99.90;;;;;;5077997;28;20228;-64
2023/03/22 03:26:27;;;;;;;55.27;34.93;;;5.60;99.90;;;;;;5080343;28;20347;-63
2023/03/22 03:29:21;;;;;;;57.50;36.43;;;5.60;99.90;;;;;;5079997;28;20281;-65
2023/03/22 03:32:18;;;;;;;57.37;35.77;;;5.60;99.90;;;;;;5077396;28;20230;-63
2023/03/22 03:35:21;;;;;;;58.13;36.30;;;5.30;99.90;;;;;;5093106;28;20755;-63
2023/03/22 03:38:15;;;;;;;58.63;37.30;;;5.20;99.90;;;;;;5094051;28;20274;-64
2023/03/22 03:41:07;;;;;;;57.30;35.50;;;5.20;99.90;;;;;;5085040;28;20239;-62
2023/03/22 03:43:57;;;;;;;60.60;36.73;;;5.10;99.90;;;;;;5084499;28;20303;-62
2023/03/22 03:46:47;;;;;;;59.90;39.37;;;5.10;99.90;;;;;;5083446;28;20365;-63
2023/03/22 03:49:38;;;;;;;60.17;37.53;;;5.00;99.90;;;;;;5082243;28;20304;-63
2023/03/22 03:52:28;;;;;;;55.97;37.80;;;4.90;99.90;;;;;;5095607;28;20318;-64
2023/03/22 03:55:17;;;;;;;57.13;37.07;;;5.00;99.90;;;;;;5077587;28;20227;-63
2023/03/22 03:58:07;;;;;;;58.30;37.47;;;4.80;99.90;;;;;;5081582;28;20595;-62
2023/03/22 04:00:56;;;;;;;66.40;40.07;;;4.90;99.90;;;;;;5081984;28;20235;-63
2023/03/22 04:04:03;;;;;;;62.90;39.23;;;4.70;99.90;;;;;;5081565;28;20271;-63
2023/03/22 04:07:08;;;;;;;61.33;39.47;;;4.70;99.90;;;;;;5079263;28;20211;-65
2023/03/22 04:09:59;;;;;;;67.87;40.73;;;4.40;99.90;;;;;;5093794;28;20574;-63
2023/03/22 04:12:52;;;;;;;64.73;37.40;;;4.50;99.90;;;;;;5082096;28;20227;-63
2023/03/22 04:15:41;;;;;;;60.77;37.73;;;4.50;99.90;;;;;;5091475;28;20288;-64
2023/03/22 04:18:34;;;;;;;62.53;37.40;;;4.40;99.90;;;;;;5080903;28;20607;-64
2023/03/22 04:21:27;;;;;;;62.30;36.67;;;4.40;99.90;;;;;;5083176;28;20292;-63
2023/03/22 04:24:22;;;;;;;61.17;37.03;;;4.40;99.90;;;;;;5083349;28;20633;-65
2023/03/22 04:27:12;;;;;;;62.50;35.70;;;4.30;99.90;;;;;;5102603;27;20228;-65
2023/03/22 04:30:27;;;;;;;56.37;34.67;;;4.30;99.90;;;;;;5075743;28;20231;-65
2023/03/22 04:33:22;;;;;;;57.93;34.40;;;4.20;99.90;;;;;;5078394;28;20353;-64
2023/03/22 04:36:30;;;;;;;53.43;32.27;;;4.30;99.90;;;;;;5083588;28;20227;-65
2023/03/22 04:39:34;;;;;;;51.47;32.67;;;4.30;99.90;;;;;;5077699;28;20223;-63
2023/03/22 04:42:44;;;;;;;52.30;32.60;;;4.20;99.90;;;;;;5083517;28;20231;-63
2023/03/22 04:45:40;;;;;;;49.80;31.97;;;4.30;99.90;;;;;;5080035;28;20221;-60
2023/03/22 04:48:31;;;;;;;51.17;32.10;;;4.30;99.90;;;;;;5077439;28;20929;-64
2023/03/22 04:51:22;;;;;;;48.03;29.93;;;4.20;99.90;;;;;;5113852;27;20227;-64
2023/03/22 04:54:47;;;;;;;51.40;31.40;;;4.00;99.90;;;;;;5077180;28;20211;-63
2023/03/22 04:57:39;;;;;;;50.00;31.53;;;4.20;99.90;;;;;;5099654;28;20242;-59
2023/03/22 05:00:28;;;;;;;47.13;30.47;;;4.10;99.90;;;;;;5078698;28;20321;-64
2023/03/22 05:03:20;;;;;;;47.47;30.33;;;4.20;99.90;;;;;;5078496;28;20239;-62
2023/03/22 05:06:11;;;;;;;49.53;31.33;;;4.20;99.90;;;;;;5084573;28;20231;-63
2023/03/22 05:09:09;;;;;;;50.33;31.87;;;4.20;99.90;;;;;;5081205;27;20247;-63
2023/03/22 05:12:03;;;;;;;46.70;30.33;;;4.00;99.90;;;;;;5080346;28;20802;-63
2023/03/22 05:15:14;;;;;;;45.67;30.17;;;4.10;99.90;;;;;;5084477;28;20227;-66
2023/03/22 05:18:04;;;;;;;45.53;30.40;;;4.20;99.90;;;;;;5080175;28;20224;-65
2023/03/22 05:20:54;;;;;;;49.40;30.33;;;4.10;99.90;;;;;;5080236;28;20230;-65
2023/03/22 05:23:45;;;;;;;47.63;30.23;;;4.20;99.90;;;;;;5078113;28;20224;-66
2023/03/22 05:26:36;;;;;;;44.77;29.73;;;4.20;99.90;;;;;;5073880;28;20278;-64
2023/03/22 05:29:27;;;;;;;43.77;28.43;;;4.30;99.90;;;;;;5066807;28;20228;-64
2023/03/22 05:32:42;;;;;;;46.87;28.80;;;4.50;99.90;;;;;;5078634;28;20227;-65
2023/03/22 05:35:33;;;;;;;43.70;28.97;;;4.60;99.90;;;;;;5050164;28;20327;-63
2023/03/22 05:38:23;;;;;;;43.13;27.37;;;4.70;99.90;;;;;;5075269;28;20227;-63
2023/03/22 05:41:15;;;;;;;40.33;26.80;;;4.90;99.90;;;;;;5072067;28;20357;-65
2023/03/22 05:44:04;;;;;;;43.30;27.47;;;4.90;99.90;;;;;;5079101;28;20222;-64
2023/03/22 05:46:58;;;;;;;43.43;28.40;;;5.00;99.90;;;;;;5091804;28;20551;-66
2023/03/22 05:50:06;;;;;;;43.47;27.87;;;5.00;99.90;;;;;;5079131;28;20215;-66
2023/03/22 05:52:56;;;;;;;38.50;27.30;;;5.10;99.90;;;;;;5075477;28;20901;-65
2023/03/22 05:55:56;;;;;;;41.20;26.77;;;5.10;99.90;;;;;;5073957;28;20333;-66
2023/03/22 05:58:45;;;;;;;41.07;26.50;;;5.30;99.90;;;;;;5085152;28;20294;-65
2023/03/22 06:01:38;;;;;;;37.40;25.67;;;5.30;99.90;;;;;;5084489;28;20219;-65
2023/03/22 06:04:37;;;;;;;41.07;27.63;;;5.50;99.90;;;;;;5104336;27;20629;-64
2023/03/22 06:07:33;;;;;;;40.63;26.93;;;5.60;99.90;;;;;;5077871;28;20231;-65
2023/03/22 06:10:35;;;;;;;41.73;26.40;;;5.80;99.90;;;;;;5080284;28;20550;-66
2023/03/22 06:13:24;;;;;;;38.60;25.83;;;5.80;99.90;;;;;;5074611;28;20857;-65
2023/03/22 06:16:13;;;;;;;39.60;25.27;;;6.00;99.90;;;;;;5076226;28;20227;-66
2023/03/22 06:19:03;;;;;;;40.93;25.60;;;5.90;99.90;;;;;;5071113;28;20300;-65
2023/03/22 06:21:54;;;;;;;36.67;25.73;;;6.10;99.90;;;;;;5083808;28;20675;-66
2023/03/22 06:24:46;;;;;;;39.50;26.30;;;6.20;99.90;;;;;;5074886;28;20216;-66
2023/03/22 06:27:40;;;;;;;40.93;25.43;;;6.50;99.90;;;;;;5069296;28;20227;-67
2023/03/22 06:30:30;;;;;;;38.37;25.30;;;6.60;99.90;;;;;;5075180;28;20575;-66
2023/03/22 06:33:48;;;;;;;38.00;24.47;;;6.70;99.90;;;;;;5064416;28;20229;-67
2023/03/22 06:36:59;;;;;;;33.87;21.53;;;6.80;99.90;;;;;;5087450;28;20215;-64
2023/03/22 06:39:54;;;;;;;33.17;21.87;;;7.00;99.90;;;;;;5074728;28;20426;-65
2023/03/22 06:42:45;;;;;;;29.37;21.30;;;7.40;99.90;;;;;;5075635;28;20218;-65
2023/03/22 06:45:37;;;;;;;26.13;17.83;;;7.60;99.90;;;;;;5075326;28;20249;-65
2023/03/22 06:48:27;;;;;;;25.00;17.17;;;7.70;99.90;;;;;;5081375;28;20230;-69
2023/03/22 06:51:28;;;;;;;27.43;18.03;;;7.90;99.90;;;;;;5077359;28;20223;-65
2023/03/22 06:54:18;;;;;;;29.47;18.27;;;8.10;99.90;;;;;;5093182;28;20243;-63
2023/03/22 06:57:07;;;;;;;27.10;17.57;;;8.20;99.90;;;;;;5086241;28;20959;-64
2023/03/22 06:59:57;;;;;;;24.77;16.63;;;8.20;99.90;;;;;;5069950;28;20364;-64
2023/03/22 07:02:46;;;;;;;29.67;17.43;;;8.40;99.90;;;;;;5079493;28;20298;-64
2023/03/22 07:05:50;;;;;;;84.60;19.10;;;8.40;99.90;;;;;;5091013;28;20417;-65
2023/03/22 07:08:39;;;;;;;28.83;16.43;;;8.60;99.90;;;;;;5093413;28;20303;-66
2023/03/22 07:11:31;;;;;;;22.50;15.67;;;8.80;99.90;;;;;;5082453;28;20222;-65
2023/03/22 07:14:22;;;;;;;24.57;15.90;;;9.10;99.90;;;;;;5073742;28;20230;-67
2023/03/22 07:17:24;;;;;;;22.67;15.23;;;9.30;99.90;;;;;;5077523;28;20253;-67
2023/03/22 07:20:13;;;;;;;23.43;15.30;;;9.30;99.90;;;;;;5091857;28;20361;-66
2023/03/22 07:23:02;;;;;;;23.93;15.40;;;9.20;99.90;;;;;;5085601;28;20228;-67
2023/03/22 07:25:55;;;;;;;21.98;14.80;;;9.40;99.90;;;;;;5070340;28;20243;-66
2023/03/22 07:28:50;;;;;;;21.90;15.03;;;9.50;99.90;;;;;;5085208;28;20685;-65
2023/03/22 07:31:41;;;;;;;21.40;14.73;;;9.60;99.90;;;;;;5085434;27;20251;-66
2023/03/22 07:34:33;;;;;;;23.77;13.57;;;9.80;99.90;;;;;;5078425;28;20614;-66
2023/03/22 07:37:25;;;;;;;22.53;13.83;;;9.80;99.90;;;;;;5080703;28;20234;-65
2023/03/22 07:40:14;;;;;;;20.00;13.83;;;10.00;99.90;;;;;;5079712;28;20242;-67
2023/03/22 07:43:04;;;;;;;19.00;14.07;;;10.20;99.90;;;;;;5076307;28;20228;-66
2023/03/22 07:46:09;;;;;;;24.75;14.85;;;10.40;99.90;;;;;;5087400;28;20686;-67
2023/03/22 07:49:14;;;;;;;21.30;13.75;;;10.50;99.90;;;;;;5080854;28;20322;-66
2023/03/22 07:52:23;;;;;;;20.02;14.65;;;10.50;99.90;;;;;;5080695;28;20223;-65
2023/03/22 07:55:14;;;;;;;20.95;14.93;;;10.70;99.90;;;;;;5077716;28;20231;-66
2023/03/22 07:58:03;;;;;;;18.70;14.80;;;10.60;99.90;;;;;;5092214;28;20282;-65
2023/03/22 08:00:52;;;;;;;20.83;15.07;;;10.80;99.90;;;;;;5077082;28;20219;-67
2023/03/22 08:04:02;;;;;;;20.38;15.05;;;11.10;99.90;;;;;;5079096;28;20218;-65
2023/03/22 08:07:17;;;;;;;20.83;15.27;;;11.20;99.90;;;;;;5073897;28;20312;-66
2023/03/22 08:10:08;;;;;;;22.13;15.52;;;11.30;99.90;;;;;;5095641;28;20243;-66
2023/03/22 08:12:57;;;;;;;21.98;15.85;;;11.50;99.90;;;;;;5096421;28;20226;-67
2023/03/22 08:15:47;;;;;;;21.90;15.57;;;11.40;99.90;;;;;;5079392;28;20216;-65
2023/03/22 08:18:38;;;;;;;20.92;15.70;;;11.40;99.90;;;;;;5075930;28;20228;-65
2023/03/22 08:21:29;;;;;;;21.10;16.00;;;11.90;99.90;;;;;;5082117;28;20235;-66
2023/03/22 08:24:19;;;;;;;22.33;17.30;;;12.20;99.90;;;;;;5080369;28;20223;-67
2023/03/22 08:27:23;;;;;;;23.13;16.67;;;12.10;99.90;;;;;;5073398;28;20255;-68
2023/03/22 08:30:13;;;;;;;26.02;16.92;;;12.00;99.90;;;;;;5095925;28;20243;-66
2023/03/22 08:33:05;;;;;;;23.17;16.63;;;12.10;99.90;;;;;;5077235;28;20224;-65
2023/03/22 08:36:05;;;;;;;20.27;16.27;;;12.00;99.90;;;;;;5071306;28;20223;-66
2023/03/22 08:39:00;;;;;;;21.73;16.52;;;11.90;99.90;;;;;;5077275;28;20662;-65
2023/03/22 08:42:06;;;;;;;30.17;17.02;;;11.80;99.90;;;;;;5092555;28;20234;-65
2023/03/22 08:44:56;;;;;;;22.27;17.05;;;11.80;99.90;;;;;;5089153;28;20741;-65
2023/03/22 08:47:48;;;;;;;23.40;16.67;;;11.70;99.90;;;;;;5089072;28;20279;-67
2023/03/22 08:50:39;;;;;;;23.27;17.85;;;11.50;99.90;;;;;;5088672;28;20215;-66
2023/03/22 08:53:36;;;;;;;24.98;17.30;;;11.50;99.90;;;;;;5073190;28;20224;-62
2023/03/22 08:56:49;;;;;;;21.38;16.27;;;11.70;99.90;;;;;;5075334;28;20302;-62
2023/03/22 08:59:57;;;;;;;22.75;17.15;;;11.90;99.90;;;;;;5077204;28;20214;-62
2023/03/22 09:02:55;;;;;;;23.33;15.75;;;11.90;99.90;;;;;;5087734;28;20228;-63
2023/03/22 09:05:44;;;;;;;25.10;17.02;;;11.80;99.90;;;;;;5087341;28;20749;-63
2023/03/22 09:08:33;;;;;;;23.42;17.58;;;11.80;99.90;;;;;;5077307;28;20594;-63
2023/03/22 09:11:28;;;;;;;22.52;16.15;;;11.80;99.90;;;;;;5078423;28;20227;-61
2023/03/22 09:14:18;;;;;;;22.80;16.35;;;11.60;99.90;;;;;;5091665;28;20809;-62
2023/03/22 09:17:08;;;;;;;21.50;16.60;;;11.60;99.90;;;;;;5066758;28;20235;-58
2023/03/22 09:19:57;;;;;;;21.50;15.82;;;11.60;99.90;;;;;;5088421;28;20223;-64
2023/03/22 09:23:02;;;;;;;21.55;16.20;;;11.50;99.90;;;;;;5095875;28;20246;-66
2023/03/22 09:25:51;;;;;;;21.00;15.73;;;11.40;99.90;;;;;;5076324;28;20223;-65
2023/03/22 09:28:44;;;;;;;20.92;15.98;;;11.40;99.90;;;;;;5076368;28;20227;-65
2023/03/22 09:31:35;;;;;;;20.02;15.50;;;11.60;99.90;;;;;;5081487;28;20296;-65
2023/03/22 09:34:36;;;;;;;19.27;15.45;;;11.60;99.90;;;;;;5091016;28;20219;-65
2023/03/22 09:37:29;;;;;;;21.65;15.63;;;11.60;99.90;;;;;;5082020;28;20315;-64
2023/03/22 09:40:24;;;;;;;21.13;15.40;;;11.70;99.90;;;;;;5078541;28;20223;-61
2023/03/22 09:43:17;;;;;;;22.02;15.50;;;11.70;99.90;;;;;;5108355;27;20385;-62
2023/03/22 09:46:10;;;;;;;18.98;14.75;;;11.70;99.90;;;;;;5080914;28;20211;-62
2023/03/22 09:49:04;;;;;;;21.73;15.88;;;11.70;99.90;;;;;;5076255;28;20587;-62
2023/03/22 09:51:54;;;;;;;24.50;16.50;;;11.80;99.90;;;;;;5076934;28;20323;-62
2023/03/22 09:54:46;;;;;;;19.67;14.07;;;12.00;99.90;;;;;;5081225;28;20741;-62
2023/03/22 09:57:37;;;;;;;18.73;14.05;;;11.90;99.90;;;;;;5095237;27;20228;-61
2023/03/22 10:00:38;;;;;;;19.15;14.82;;;12.00;99.90;;;;;;5082002;28;21334;-61
2023/03/22 10:03:57;;;;;;;19.52;14.63;;;12.10;99.90;;;;;;5076374;28;20255;-61
2023/03/22 10:06:58;;;;;;;20.00;13.98;;;12.30;99.90;;;;;;5074486;28;20788;-62
2023/03/22 10:09:57;;;;;;;21.85;14.52;;;12.30;99.90;;;;;;5076391;28;20238;-61
2023/03/22 10:12:51;;;;;;;18.17;13.27;;;12.30;99.90;;;;;;5095100;28;20215;-59
2023/03/22 10:15:44;;;;;;;19.92;14.27;;;12.40;99.90;;;;;;5080470;28;20234;-61
2023/03/22 10:18:36;;;;;;;24.42;14.50;;;12.40;99.90;;;;;;5077463;28;20538;-60
2023/03/22 10:21:26;;;;;;;20.13;14.60;;;12.50;99.90;;;;;;5082536;28;20222;-62
2023/03/22 10:24:19;;;;;;;20.30;14.38;;;12.60;99.90;;;;;;5082636;28;20361;-60
2023/03/22 10:27:15;;;;;;;17.40;14.07;;;12.60;99.90;;;;;;5081100;28;20215;-61
2023/03/22 10:30:19;;;;;;;20.88;14.60;;;12.60;99.90;;;;;;5047183;28;20224;-62
2023/03/22 10:33:14;;;;;;;16.33;12.90;;;12.50;99.90;;;;;;5061362;28;20219;-62
2023/03/22 10:36:05;;;;;;;17.92;12.88;;;12.40;99.90;;;;;;5065720;28;20221;-60
2023/03/22 10:38:59;;;;;;;16.27;13.15;;;12.50;99.90;;;;;;5046959;28;21319;-63
2023/03/22 10:41:52;;;;;;;19.58;13.00;;;12.60;99.90;;;;;;5059754;28;20283;-62
2023/03/22 10:44:46;;;;;;;17.05;13.10;;;12.70;99.90;;;;;;5059929;28;20603;-62
2023/03/22 10:47:40;;;;;;;15.60;12.93;;;12.70;99.90;;;;;;5057557;28;20235;-62
2023/03/22 10:50:33;;;;;;;17.63;12.95;;;12.70;99.90;;;;;;5043777;28;20220;-62
2023/03/22 10:53:31;;;;;;;18.45;13.45;;;12.70;99.90;;;;;;5049953;28;20227;-62
2023/03/22 10:56:21;;;;;;;16.67;12.90;;;12.70;99.90;;;;;;5065632;28;20226;-62
2023/03/22 10:59:48;;;;;;;17.50;12.82;;;12.80;99.90;;;;;;5057712;28;20243;-62
2023/03/22 11:02:51;;;;;;;17.92;12.85;;;12.90;99.90;;;;;;5064035;28;20223;-61
2023/03/22 11:05:41;;;;;;;19.02;13.00;;;12.90;99.90;;;;;;5053980;28;20373;-61
2023/03/22 11:08:38;;;;;;;17.70;13.18;;;12.90;99.90;;;;;;5066324;28;20698;-61
2023/03/22 11:11:28;;;;;;;19.52;13.75;;;12.90;99.90;;;;;;5065601;28;20226;-63
2023/03/22 11:14:23;;;;;;;17.00;13.27;;;13.00;99.90;;;;;;5066850;28;20235;-61
2023/03/22 11:17:15;;;;;;;17.42;13.00;;;12.90;99.90;;;;;;5067228;28;20228;-62
2023/03/22 11:20:08;;;;;;;20.58;13.35;;;13.00;99.90;;;;;;5058605;28;20737;-62
2023/03/22 11:23:01;;;;;;;16.83;13.05;;;12.90;99.90;;;;;;5062230;28;20758;-62
2023/03/22 11:25:55;;;;;;;17.17;12.68;;;12.90;99.90;;;;;;5056568;28;20224;-66
2023/03/22 11:28:49;;;;;;;18.70;12.88;;;12.90;99.90;;;;;;5069473;28;20727;-63
2023/03/22 11:31:58;;;;;;;17.55;12.18;;;12.90;99.90;;;;;;5062318;28;20232;-64
2023/03/22 11:34:47;;;;;;;15.93;11.82;;;12.80;99.90;;;;;;5057901;28;20220;-64
2023/03/22 11:37:41;;;;;;;16.60;11.73;;;12.70;99.90;;;;;;5065071;28;20844;-64
2023/03/22 11:40:32;;;;;;;14.80;11.80;;;12.80;99.90;;;;;;5062829;28;20317;-63
2023/03/22 11:43:23;;;;;;;16.63;11.70;;;12.90;99.90;;;;;;5062051;28;20220;-63
2023/03/22 11:46:12;;;;;;;15.70;11.27;;;12.90;99.90;;;;;;5063502;28;20231;-63
2023/03/22 11:49:06;;;;;;;16.13;12.23;;;12.90;99.90;;;;;;5065485;28;20385;-63
2023/03/22 11:51:56;;;;;;;17.45;13.45;;;13.00;99.90;;;;;;5054366;28;20786;-64
2023/03/22 11:54:46;;;;;;;16.85;12.40;;;12.90;99.90;;;;;;5059893;28;20216;-64
2023/03/22 11:57:36;;;;;;;17.35;12.43;;;12.90;99.90;;;;;;5061820;28;20223;-63
2023/03/22 12:00:28;;;;;;;16.10;12.15;;;12.90;99.90;;;;;;5058297;28;20224;-63
2023/03/22 12:03:21;;;;;;;19.17;12.82;;;13.30;99.90;;;;;;5066924;28;20239;-64
2023/03/22 12:06:20;;;;;;;18.60;12.30;;;13.50;99.90;;;;;;5063529;28;20773;-64
2023/03/22 12:09:18;;;;;;;15.63;11.90;;;13.50;99.90;;;;;;5050706;28;20649;-63
2023/03/22 12:12:13;;;;;;;17.70;12.93;;;13.50;99.90;;;;;;5050057;28;20404;-62
2023/03/22 12:15:05;;;;;;;17.55;13.05;;;13.60;99.90;;;;;;5063875;28;20961;-62
2023/03/22 12:18:00;;;;;;;15.55;12.45;;;13.50;99.90;;;;;;5064800;28;20721;-63
2023/03/22 12:20:54;;;;;;;17.42;13.00;;;13.70;99.90;;;;;;5055230;28;20630;-62
2023/03/22 12:23:44;;;;;;;17.38;12.20;;;13.80;99.90;;;;;;5062781;28;20307;-63
2023/03/22 12:26:34;;;;;;;16.52;12.85;;;13.70;99.90;;;;;;5059202;28;20216;-63
2023/03/22 12:29:23;;;;;;;16.38;12.23;;;13.80;99.90;;;;;;5077159;28;20223;-70
2023/03/22 12:32:17;;;;;;;15.95;12.63;;;14.00;99.90;;;;;;5079615;27;20338;-63
2023/03/22 12:35:11;;;;;;;15.52;11.88;;;14.10;99.90;;;;;;5083059;28;20226;-64
2023/03/22 12:38:16;;;;;;;14.18;11.18;;;14.00;99.90;;;;;;5082378;28;20226;-64
2023/03/22 12:41:10;;;;;;;14.90;10.30;;;14.00;99.90;;;;;;5078388;27;20305;-63
2023/03/22 12:44:03;;;;;;;14.57;10.32;;;14.00;99.90;;;;;;5076701;28;20341;-62
2023/03/22 12:46:56;;;;;;;15.70;10.70;;;14.00;99.90;;;;;;5081328;28;20231;-62
2023/03/22 12:49:52;;;;;;;15.25;11.10;;;14.00;99.90;;;;;;5095936;28;20227;-63
2023/03/22 12:52:46;;;;;;;14.27;10.25;;;14.10;99.90;;;;;;5079609;28;20238;-63
2023/03/22 12:55:38;;;;;;;13.48;10.10;;;14.10;99.90;;;;;;5080557;28;20239;-62
2023/03/22 12:58:29;;;;;;;14.38;9.88;;;14.00;99.90;;;;;;5079508;28;20215;-65
2023/03/22 13:01:30;;;;;;;13.00;9.63;;;13.90;99.90;;;;;;5074208;28;20346;-62
2023/03/22 13:04:45;;;;;;;13.02;9.90;;;14.00;99.90;;;;;;5091188;28;20227;-61
2023/03/22 13:07:50;;;;;;;15.48;9.90;;;14.10;99.90;;;;;;5081157;27;20230;-60
2023/03/22 13:10:59;;;;;;;14.90;10.07;;;14.00;99.90;;;;;;5080354;28;20224;-61
2023/03/22 13:13:50;;;;;;;16.02;10.10;;;13.90;99.90;;;;;;5079436;28;20406;-68
2023/03/22 13:17:00;;;;;;;16.27;10.23;;;14.00;99.90;;;;;;5081989;28;20695;-62
2023/03/22 13:19:52;;;;;;;15.50;10.23;;;14.00;99.90;;;;;;5080535;27;20223;-61
2023/03/22 13:23:02;;;;;;;14.93;9.88;;;14.00;99.90;;;;;;5081718;28;20312;-61
2023/03/22 13:26:04;;;;;;;17.23;10.43;;;14.10;99.90;;;;;;5078883;28;20302;-62
2023/03/22 13:28:59;;;;;;;14.45;9.90;;;14.10;99.90;;;;;;5068660;28;20231;-63
2023/03/22 13:31:57;;;;;;;14.60;10.93;;;14.30;99.90;;;;;;5064054;28;20246;-63
2023/03/22 13:34:49;;;;;;;15.35;10.85;;;14.20;99.90;;;;;;5064917;28;20227;-65
2023/03/22 13:37:45;;;;;;;13.27;10.55;;;14.20;99.90;;;;;;5039089;28;20236;-63
2023/03/22 13:40:38;;;;;;;13.80;10.68;;;14.20;99.90;;;;;;5065811;28;20750;-65
2023/03/22 13:43:31;;;;;;;15.00;10.95;;;14.20;99.90;;;;;;5063578;28;20227;-65
2023/03/22 13:46:46;;;;;;;14.50;10.57;;;14.10;99.90;;;;;;5050510;28;20263;-63
2023/03/22 13:49:49;;;;;;;16.10;10.65;;;14.10;99.90;;;;;;5059258;28;20235;-65
2023/03/22 13:52:41;;;;;;;14.57;10.30;;;14.10;99.90;;;;;;5056819;28;20254;-65
2023/03/22 13:55:41;;;;;;;12.02;9.90;;;14.10;99.90;;;;;;5056682;28;20338;-63
2023/03/22 13:58:48;;;;;;;16.90;10.18;;;14.20;99.90;;;;;;5066672;28;21078;-63
2023/03/22 14:01:46;;;;;;;15.63;10.88;;;14.10;99.90;;;;;;5068805;28;20242;-65
2023/03/22 14:04:43;;;;;;;13.77;10.65;;;14.10;99.90;;;;;;5053750;28;20228;-64
2023/03/22 14:07:35;;;;;;;16.10;10.30;;;14.00;99.90;;;;;;5059988;28;20707;-63
2023/03/22 14:10:28;;;;;;;12.35;9.70;;;14.00;99.90;;;;;;5054146;28;20219;-63
2023/03/22 14:13:23;;;;;;;14.38;10.88;;;14.10;99.90;;;;;;5061253;28;20225;-63
2023/03/22 14:16:18;;;;;;;12.95;10.18;;;14.20;99.90;;;;;;5058051;28;20580;-63
2023/03/22 14:19:09;;;;;;;14.95;10.32;;;14.00;99.90;;;;;;5056412;28;20230;-63
2023/03/22 14:22:02;;;;;;;13.38;9.90;;;14.00;99.90;;;;;;5054360;28;20730;-62
2023/03/22 14:24:50;;;;;;;16.63;10.75;;;14.00;99.90;;;;;;5068300;28;20801;-62
2023/03/22 14:27:41;;;;;;;13.77;10.13;;;14.00;99.90;;;;;;5041021;28;20271;-63
2023/03/22 14:30:34;;;;;;;16.15;10.63;;;14.20;99.90;;;;;;5072451;28;20278;-61
2023/03/22 14:33:24;;;;;;;14.50;9.68;;;14.10;99.90;;;;;;5068831;28;20717;-60
2023/03/22 14:36:15;;;;;;;15.15;10.18;;;14.20;99.90;;;;;;5083357;28;20231;-63
2023/03/22 14:39:11;;;;;;;15.32;10.57;;;14.10;99.90;;;;;;5070384;28;20235;-62
2023/03/22 14:42:02;;;;;;;15.20;10.55;;;14.10;99.90;;;;;;5068712;28;20795;-61
2023/03/22 14:44:52;;;;;;;14.65;10.10;;;14.10;99.90;;;;;;5076562;28;20234;-63
2023/03/22 14:47:45;;;;;;;16.20;9.73;;;14.10;99.90;;;;;;5082416;28;20337;-61
2023/03/22 14:50:34;;;;;;;12.95;10.30;;;14.10;99.90;;;;;;5084552;28;20231;-59
2023/03/22 14:53:28;;;;;;;15.90;10.02;;;14.10;99.90;;;;;;5086076;28;20211;-61
2023/03/22 14:56:21;;;;;;;15.75;10.20;;;14.10;99.90;;;;;;5064876;28;20223;-62